createdAt,value
2022-12-15T00:03:00.154Z,99.90
2022-12-15T00:06:21.734Z,99.90
2022-12-15T00:09:42.383Z,99.90
2022-12-15T00:13:04.714Z,99.90
2022-12-15T00:16:26.027Z,99.90
2022-12-15T00:19:47.807Z,99.90
2022-12-15T00:23:08.648Z,99.90
2022-12-15T00:26:29.319Z,99.90
2022-12-15T00:29:50.079Z,99.90
2022-12-15T00:33:10.789Z,99.90
2022-12-15T00:36:31.452Z,99.90
2022-12-15T00:39:33.514Z,99.90
2022-12-15T00:42:53.204Z,99.90
2022-12-15T00:46:14.209Z,99.90
2022-12-15T00:49:34.913Z,99.90
2022-12-15T00:52:55.675Z,99.90
2022-12-15T00:56:16.476Z,99.90
2022-12-15T00:59:37.186Z,99.90
2022-12-15T01:02:57.829Z,99.90
2022-12-15T01:06:19.194Z,99.90
2022-12-15T01:09:39.874Z,99.90
2022-12-15T01:13:00.709Z,99.90
2022-12-15T01:16:21.365Z,99.90
2022-12-15T01:19:42.113Z,99.90
2022-12-15T01:22:49.499Z,99.90
2022-12-15T01:25:54.542Z,99.90
2022-12-15T01:28:56.559Z,99.90
2022-12-15T01:31:58.644Z,99.90
2022-12-15T01:35:00.785Z,99.90
2022-12-15T01:38:02.739Z,99.90
2022-12-15T01:41:10.791Z,99.90
2022-12-15T01:44:22.468Z,99.90
2022-12-15T01:47:27.377Z,99.90
2022-12-15T01:50:31.505Z,99.90
2022-12-15T01:53:40.999Z,99.90
2022-12-15T01:56:57.119Z,99.90
2022-12-15T02:00:02.233Z,99.90
2022-12-15T02:03:07.689Z,99.90
2022-12-15T02:06:11.750Z,99.90
2022-12-15T02:09:16.279Z,99.90
2022-12-15T02:12:29.222Z,99.90
2022-12-15T02:15:49.705Z,99.90
2022-12-15T02:19:02.621Z,99.90
2022-12-15T02:22:46.283Z,99.90
2022-12-15T02:26:19.236Z,99.90
2022-12-15T02:29:41.088Z,99.90
2022-12-15T02:32:50.246Z,99.90
2022-12-15T02:36:01.983Z,99.90
2022-12-15T02:39:06.135Z,99.90
2022-12-15T02:42:10.674Z,99.90
2022-12-15T02:46:23.320Z,99.90
2022-12-15T02:49:40.154Z,99.90
2022-12-15T02:53:00.596Z,99.90
2022-12-15T02:56:05.646Z,99.90
2022-12-15T02:59:13.432Z,99.90
2022-12-15T03:02:16.071Z,99.90
2022-12-15T03:05:19.819Z,99.90
2022-12-15T03:08:22.459Z,99.90
2022-12-15T03:11:24.751Z,99.90
2022-12-15T03:14:28.631Z,99.90
2022-12-15T03:17:32.281Z,99.90
2022-12-15T03:20:34.405Z,99.90
2022-12-15T03:23:36.420Z,99.90
2022-12-15T03:26:38.501Z,99.90
2022-12-15T03:29:40.722Z,99.90
2022-12-15T03:32:42.806Z,99.90
2022-12-15T03:35:44.864Z,99.90
2022-12-15T03:38:46.883Z,99.90
2022-12-15T03:41:48.863Z,99.90
2022-12-15T03:44:50.849Z,99.90
2022-12-15T03:47:54.512Z,99.90
2022-12-15T03:50:56.504Z,99.90
2022-12-15T03:53:59.156Z,99.90
2022-12-15T03:57:01.449Z,99.90
2022-12-15T04:00:06.290Z,99.90
2022-12-15T04:03:09.726Z,99.90
2022-12-15T04:06:11.860Z,99.90
2022-12-15T04:09:13.871Z,99.90
2022-12-15T04:12:16.020Z,99.90
2022-12-15T04:15:18.278Z,99.90
2022-12-15T04:18:20.456Z,99.90
2022-12-15T04:21:22.699Z,99.90
2022-12-15T04:24:43.026Z,99.90
2022-12-15T04:28:03.522Z,99.90
2022-12-15T04:31:28.878Z,99.90
2022-12-15T04:34:49.220Z,99.90
2022-12-15T04:38:09.774Z,99.90
2022-12-15T04:41:33.629Z,99.90
2022-12-15T04:44:54.574Z,99.90
2022-12-15T04:48:15.426Z,99.90
2022-12-15T04:51:36.053Z,99.90
2022-12-15T04:54:56.765Z,99.90
2022-12-15T04:58:26.881Z,99.90
2022-12-15T05:01:47.663Z,99.90
2022-12-15T05:05:08.358Z,99.90
2022-12-15T05:08:28.856Z,99.90
2022-12-15T05:11:49.401Z,99.90
2022-12-15T05:15:14.027Z,99.90
2022-12-15T05:18:37.261Z,99.90
2022-12-15T05:21:57.934Z,99.90
2022-12-15T05:25:18.643Z,99.90
2022-12-15T05:28:39.379Z,99.90
2022-12-15T05:31:54.902Z,99.90
2022-12-15T05:34:57.092Z,99.90
2022-12-15T05:38:02.058Z,99.90
2022-12-15T05:41:04.172Z,99.90
2022-12-15T05:44:06.399Z,99.90
2022-12-15T05:47:09.344Z,99.90
2022-12-15T05:50:11.508Z,99.90
2022-12-15T05:53:13.576Z,99.90
2022-12-15T05:56:15.905Z,99.90
2022-12-15T05:59:19.271Z,99.90
2022-12-15T06:02:21.555Z,99.90
2022-12-15T06:05:23.756Z,99.90
2022-12-15T06:08:26.499Z,99.90
2022-12-15T06:11:28.647Z,99.90
2022-12-15T06:14:31.383Z,99.90
2022-12-15T06:17:33.515Z,99.90
2022-12-15T06:20:35.534Z,99.90
2022-12-15T06:23:38.000Z,99.90
2022-12-15T06:26:40.919Z,99.90
2022-12-15T06:29:43.084Z,99.90
2022-12-15T06:32:46.444Z,99.90
2022-12-15T06:35:52.439Z,99.90
2022-12-15T06:38:54.737Z,99.90
2022-12-15T06:41:56.822Z,99.90
2022-12-15T06:44:59.541Z,99.90
2022-12-15T06:48:02.009Z,99.90
2022-12-15T06:51:06.261Z,99.90
2022-12-15T06:54:11.415Z,99.90
2022-12-15T06:57:14.344Z,99.90
2022-12-15T07:00:16.941Z,99.90
2022-12-15T07:03:20.207Z,99.90
2022-12-15T07:06:22.568Z,99.90
2022-12-15T07:09:26.310Z,99.90
2022-12-15T07:12:28.360Z,99.90
2022-12-15T07:15:31.239Z,99.90
2022-12-15T07:18:33.903Z,99.90
2022-12-15T07:21:35.953Z,99.90
2022-12-15T07:24:38.107Z,99.90
2022-12-15T07:27:40.153Z,99.90
2022-12-15T07:30:44.495Z,99.90
2022-12-15T07:33:48.561Z,99.90
2022-12-15T07:36:52.789Z,99.90
2022-12-15T07:39:54.994Z,99.90
2022-12-15T07:42:57.495Z,99.90
2022-12-15T07:46:00.089Z,99.90
2022-12-15T07:49:02.859Z,99.90
2022-12-15T07:52:04.983Z,99.90
2022-12-15T07:55:07.747Z,99.90
2022-12-15T07:58:10.119Z,99.90
2022-12-15T08:01:13.745Z,99.90
2022-12-15T08:04:16.075Z,99.90
2022-12-15T08:07:20.888Z,99.90
2022-12-15T08:10:23.071Z,99.90
2022-12-15T08:13:52.881Z,99.90
2022-12-15T08:16:48.984Z,99.90
2022-12-15T08:19:54.472Z,99.90
2022-12-15T08:22:59.838Z,99.90
2022-12-15T08:26:14.135Z,99.90
2022-12-15T08:32:39.603Z,99.90
2022-12-15T08:35:56.506Z,99.90
2022-12-15T08:39:01.546Z,99.90
2022-12-15T08:42:03.841Z,99.90
2022-12-15T08:45:12.856Z,99.90
2022-12-15T08:48:14.904Z,99.90
2022-12-15T08:51:17.655Z,99.90
2022-12-15T08:54:20.874Z,99.90
2022-12-15T08:57:22.947Z,99.90
2022-12-15T09:00:24.973Z,99.90
2022-12-15T09:03:27.542Z,99.90
2022-12-15T09:06:31.577Z,99.90
2022-12-15T09:09:33.729Z,99.60
2022-12-15T09:12:35.873Z,97.10
2022-12-15T09:16:07.811Z,96.90
2022-12-15T09:19:00.327Z,97.20
2022-12-15T09:22:02.641Z,96.10
2022-12-15T09:25:05.851Z,94.90
2022-12-15T09:28:08.061Z,94.10
2022-12-15T09:31:11.365Z,92.50
2022-12-15T09:34:17.728Z,93.10
2022-12-15T09:37:20.522Z,94.60
2022-12-15T09:40:22.985Z,96.90
2022-12-15T09:43:35.770Z,97.50
2022-12-15T09:46:50.162Z,99.00
2022-12-15T09:49:57.426Z,97.50
2022-12-15T09:53:00.903Z,96.90
2022-12-15T09:56:13.670Z,95.20
2022-12-15T09:59:31.934Z,94.40
2022-12-15T10:03:12.370Z,91.40
2022-12-15T10:06:22.332Z,89.60
2022-12-15T10:09:29.124Z,84.40
2022-12-15T10:12:35.861Z,79.90
2022-12-15T10:15:55.574Z,81.00
2022-12-15T10:19:08.015Z,80.80
2022-12-15T10:22:18.508Z,79.80
2022-12-15T10:25:27.604Z,81.10
2022-12-15T10:28:38.881Z,83.30
2022-12-15T10:31:52.927Z,89.10
2022-12-15T10:34:56.008Z,90.40
2022-12-15T10:38:00.322Z,89.70
2022-12-15T10:41:08.590Z,91.00
2022-12-15T10:44:32.032Z,90.50
2022-12-15T10:47:34.527Z,86.80
2022-12-15T10:50:37.083Z,83.80
2022-12-15T10:53:54.046Z,84.80
2022-12-15T10:56:59.687Z,82.50
2022-12-15T11:00:13.605Z,80.30
2022-12-15T11:03:26.882Z,75.30
2022-12-15T11:06:31.825Z,70.90
2022-12-15T11:09:39.197Z,67.40
2022-12-15T11:12:58.355Z,62.20
2022-12-15T11:16:14.752Z,64.60
2022-12-15T11:19:36.573Z,59.20
2022-12-15T11:23:05.227Z,61.20
2022-12-15T11:26:19.411Z,57.10
2022-12-15T11:29:36.166Z,54.40
2022-12-15T11:32:41.713Z,54.10
2022-12-15T11:35:55.128Z,54.60
2022-12-15T11:39:08.618Z,56.30
2022-12-15T11:42:19.498Z,58.40
2022-12-15T11:45:40.523Z,57.30
2022-12-15T11:49:04.300Z,57.40
2022-12-15T11:52:17.896Z,60.40
2022-12-15T11:55:40.851Z,61.80
2022-12-15T11:59:21.516Z,65.90
2022-12-15T12:02:32.188Z,71.10
2022-12-15T12:05:49.277Z,74.10
2022-12-15T12:09:11.419Z,75.00
2022-12-15T12:12:22.868Z,80.00
2022-12-15T12:15:31.027Z,81.50
2022-12-15T12:18:38.103Z,84.10
2022-12-15T12:21:45.331Z,83.80
2022-12-15T12:24:59.147Z,86.10
2022-12-15T12:28:03.787Z,88.30
2022-12-15T12:31:16.203Z,90.00
2022-12-15T12:34:27.397Z,90.20
2022-12-15T12:37:41.606Z,90.20
2022-12-15T12:41:07.517Z,90.60
2022-12-15T12:44:22.758Z,91.30
2022-12-15T12:47:37.339Z,91.80
2022-12-15T12:50:39.392Z,92.20
2022-12-15T12:53:42.102Z,92.70
2022-12-15T12:56:48.699Z,92.80
2022-12-15T13:00:04.729Z,93.30
2022-12-15T13:03:13.498Z,94.40
2022-12-15T13:06:43.026Z,93.20
2022-12-15T13:09:45.128Z,93.20
2022-12-15T13:13:00.668Z,92.10
2022-12-15T13:16:20.518Z,92.30
2022-12-15T13:20:00.595Z,92.60
2022-12-15T13:23:35.736Z,93.60
2022-12-15T13:26:43.739Z,94.00
2022-12-15T13:30:02.128Z,94.60
2022-12-15T13:33:19.749Z,94.70
2022-12-15T13:36:40.210Z,94.60
2022-12-15T13:39:55.161Z,95.00
2022-12-15T13:43:32.026Z,94.40
2022-12-15T13:46:35.731Z,94.30
2022-12-15T13:50:01.692Z,94.90
2022-12-15T13:53:19.450Z,94.40
2022-12-15T13:56:41.659Z,94.50
2022-12-15T13:59:49.442Z,94.90
2022-12-15T14:02:51.800Z,95.00
2022-12-15T14:05:59.449Z,95.20
2022-12-15T14:09:01.906Z,95.20
2022-12-15T14:12:08.366Z,95.70
2022-12-15T14:15:16.339Z,95.50
2022-12-15T14:18:24.205Z,95.50
2022-12-15T14:21:27.073Z,95.90
2022-12-15T14:24:40.512Z,96.50
2022-12-15T14:27:43.128Z,97.30
2022-12-15T14:30:45.490Z,97.30
2022-12-15T14:34:03.188Z,97.70
2022-12-15T14:37:10.840Z,98.00
2022-12-15T14:40:17.048Z,98.00
2022-12-15T14:43:30.481Z,98.30
2022-12-15T14:46:32.935Z,98.70
2022-12-15T14:49:43.891Z,99.00
2022-12-15T14:52:46.321Z,99.00
2022-12-15T14:55:48.423Z,98.40
2022-12-15T14:59:04.577Z,98.80
2022-12-15T15:02:14.151Z,98.90
2022-12-15T15:05:27.752Z,99.10
2022-12-15T15:08:35.669Z,98.80
2022-12-15T15:11:42.005Z,98.50
2022-12-15T15:14:49.131Z,98.80
2022-12-15T15:17:53.719Z,98.80
2022-12-15T15:21:01.479Z,99.00
2022-12-15T15:24:11.680Z,99.10
2022-12-15T15:27:35.857Z,99.20
2022-12-15T15:30:48.990Z,99.50
2022-12-15T15:33:52.126Z,99.80
2022-12-15T15:36:57.668Z,99.90
2022-12-15T15:39:59.671Z,99.90
2022-12-15T15:43:02.252Z,99.90
2022-12-15T15:46:22.795Z,99.90
2022-12-15T15:49:24.947Z,99.90
2022-12-15T15:52:32.052Z,99.90
2022-12-15T15:55:39.543Z,99.90
2022-12-15T15:58:43.919Z,99.90
2022-12-15T16:01:54.554Z,99.90
2022-12-15T16:04:56.857Z,99.90
2022-12-15T16:07:59.851Z,99.90
2022-12-15T16:11:02.627Z,99.90
2022-12-15T16:14:06.710Z,99.90
2022-12-15T16:17:09.780Z,99.90
2022-12-15T16:20:13.937Z,99.90
2022-12-15T16:23:20.040Z,99.90
2022-12-15T16:26:31.955Z,99.90
2022-12-15T16:29:34.928Z,99.90
2022-12-15T16:32:36.866Z,99.90
2022-12-15T16:35:40.519Z,99.90
2022-12-15T16:38:43.744Z,99.90
2022-12-15T16:41:45.826Z,99.90
2022-12-15T16:44:48.752Z,99.90
2022-12-15T16:47:51.342Z,99.90
2022-12-15T16:50:56.417Z,99.90
2022-12-15T16:53:59.546Z,99.90
2022-12-15T16:57:10.672Z,99.90
2022-12-15T17:00:26.447Z,99.90
2022-12-15T17:03:28.650Z,99.90
2022-12-15T17:06:30.995Z,99.90
2022-12-15T17:09:36.882Z,99.90
2022-12-15T17:12:38.949Z,99.90
2022-12-15T17:15:41.025Z,99.90
2022-12-15T17:18:44.626Z,99.90
2022-12-15T17:21:49.922Z,99.90
2022-12-15T17:24:53.050Z,99.90
2022-12-15T17:27:56.319Z,99.90
2022-12-15T17:30:59.066Z,99.90
2022-12-15T17:34:02.561Z,99.90
2022-12-15T17:37:11.272Z,99.90
2022-12-15T17:40:17.674Z,99.90
2022-12-15T17:43:22.851Z,99.90
2022-12-15T17:46:24.960Z,99.90
2022-12-15T17:49:33.022Z,99.90
2022-12-15T17:52:37.619Z,99.90
2022-12-15T17:55:40.273Z,99.90
2022-12-15T17:58:49.363Z,99.90
2022-12-15T18:01:52.302Z,99.90
2022-12-15T18:04:55.442Z,99.90
2022-12-15T18:08:00.911Z,99.90
2022-12-15T18:11:03.416Z,99.90
2022-12-15T18:14:16.064Z,99.90
2022-12-15T18:17:18.103Z,99.90
2022-12-15T18:20:21.771Z,99.90
2022-12-15T18:23:30.772Z,99.90
2022-12-15T18:26:37.983Z,99.90
2022-12-15T18:29:40.003Z,99.90
2022-12-15T18:32:42.357Z,99.90
2022-12-15T18:35:46.938Z,99.90
2022-12-15T18:38:49.854Z,99.90
2022-12-15T18:41:54.873Z,99.90
2022-12-15T18:45:00.435Z,99.90
2022-12-15T18:48:02.697Z,99.90
2022-12-15T18:51:20.881Z,99.90
2022-12-15T18:54:24.375Z,99.90
2022-12-15T18:57:28.364Z,99.90
2022-12-15T19:00:32.479Z,99.90
2022-12-15T19:03:36.516Z,99.90
2022-12-15T19:06:40.515Z,99.90
2022-12-15T19:09:42.855Z,99.90
2022-12-15T19:12:44.944Z,99.90
2022-12-15T19:15:47.320Z,99.90
2022-12-15T19:19:10.234Z,99.90
2022-12-15T19:22:28.132Z,99.90
2022-12-15T19:25:30.781Z,99.90
2022-12-15T19:28:33.257Z,99.90
2022-12-15T19:31:42.895Z,99.90
2022-12-15T19:34:45.158Z,99.90
2022-12-15T19:37:49.762Z,99.90
2022-12-15T19:40:55.916Z,99.90
2022-12-15T19:43:57.963Z,99.90
2022-12-15T19:46:59.937Z,99.90
2022-12-15T19:50:01.922Z,99.90
2022-12-15T19:53:21.861Z,99.90
2022-12-15T19:56:24.221Z,99.90
2022-12-15T19:59:28.355Z,99.90
2022-12-15T20:02:30.557Z,99.90
2022-12-15T20:05:37.498Z,99.90
2022-12-15T20:08:42.388Z,99.90
2022-12-15T20:11:45.562Z,99.90
2022-12-15T20:14:47.789Z,99.90
2022-12-15T20:17:57.481Z,99.90
2022-12-15T20:21:00.329Z,99.90
2022-12-15T20:24:09.004Z,99.90
2022-12-15T20:27:16.686Z,99.90
2022-12-15T20:30:24.562Z,99.90
2022-12-15T20:33:26.712Z,99.90
2022-12-15T20:36:30.757Z,99.90
2022-12-15T20:39:34.006Z,99.90
2022-12-15T20:42:36.152Z,99.90
2022-12-15T20:45:38.461Z,99.90
2022-12-15T20:48:40.679Z,99.90
2022-12-15T20:51:43.233Z,99.90
2022-12-15T20:54:45.268Z,99.90
2022-12-15T20:57:49.299Z,99.90
2022-12-15T21:00:52.237Z,99.90
2022-12-15T21:03:58.854Z,99.90
2022-12-15T21:07:00.919Z,99.90
2022-12-15T21:10:03.218Z,99.90
2022-12-15T21:13:14.243Z,99.90
2022-12-15T21:16:19.641Z,99.90
2022-12-15T21:19:22.849Z,99.90
2022-12-15T21:22:27.801Z,99.90
2022-12-15T21:25:30.058Z,99.90
2022-12-15T21:28:32.507Z,99.90
2022-12-15T21:31:34.850Z,99.90
2022-12-15T21:34:37.079Z,99.90
2022-12-15T21:37:39.143Z,99.90
2022-12-15T21:40:42.432Z,99.90
2022-12-15T21:43:44.779Z,99.90
2022-12-15T21:46:46.881Z,99.90
2022-12-15T21:49:49.032Z,99.90
2022-12-15T21:52:52.499Z,99.90
2022-12-15T21:55:58.386Z,99.90
2022-12-15T21:59:00.583Z,99.90
2022-12-15T22:02:24.743Z,99.90
2022-12-15T22:05:32.509Z,99.90
2022-12-15T22:08:35.196Z,99.90
2022-12-15T22:11:38.616Z,99.90
2022-12-15T22:14:41.238Z,99.90
2022-12-15T22:17:44.486Z,99.90
2022-12-15T22:20:48.381Z,99.90
2022-12-15T22:23:51.019Z,99.90
2022-12-15T22:26:53.095Z,99.90
2022-12-15T22:29:56.705Z,99.90
2022-12-15T22:32:58.752Z,99.90
2022-12-15T22:36:00.725Z,99.90
2022-12-15T22:39:08.139Z,99.90
2022-12-15T22:42:16.843Z,99.90
2022-12-15T22:45:21.170Z,99.90
2022-12-15T22:48:27.417Z,99.90
2022-12-15T22:51:29.468Z,99.90
2022-12-15T22:54:32.259Z,99.90
2022-12-15T22:57:35.002Z,99.90
2022-12-15T23:00:37.840Z,99.90
2022-12-15T23:03:39.957Z,99.90
2022-12-15T23:06:42.255Z,99.90
2022-12-15T23:09:44.311Z,99.90
2022-12-15T23:12:46.363Z,99.90
2022-12-15T23:16:07.780Z,99.90
2022-12-15T23:19:23.735Z,99.90
2022-12-15T23:22:26.539Z,99.90
2022-12-15T23:25:28.543Z,99.90
2022-12-15T23:28:31.141Z,99.90
2022-12-15T23:31:33.304Z,99.90
2022-12-15T23:34:35.417Z,99.90
2022-12-15T23:37:37.540Z,99.90
2022-12-15T23:40:52.734Z,99.90
2022-12-15T23:43:55.760Z,99.90
2022-12-15T23:46:58.073Z,99.90
2022-12-15T23:50:00.123Z,99.90
2022-12-15T23:53:03.375Z,99.90
2022-12-15T23:56:25.746Z,99.90
2022-12-15T23:59:27.867Z,99.90
